sensor_id;sensor_type;location;lat;lon;timestamp;pressure;altitude;pressure_sealevel;temperature;humidity
49657;BME280;71194;38.900;-77.124;2023-10-19T00:01:06;100791.06;;;16.64;45.85
49657;BME280;71194;38.900;-77.124;2023-10-19T00:03:34;100790.14;;;16.32;46.73
49657;BME280;71194;38.900;-77.124;2023-10-19T00:06:02;100786.08;;;16.53;45.76
49657;BME280;71194;38.900;-77.124;2023-10-19T00:08:30;100782.45;;;16.62;44.67
49657;BME280;71194;38.900;-77.124;2023-10-19T00:10:58;100784.69;;;16.26;44.91
49657;BME280;71194;38.900;-77.124;2023-10-19T00:13:26;100789.83;;;16.57;45.82
49657;BME280;71194;38.900;-77.124;2023-10-19T00:15:55;100788.00;;;16.59;45.76
49657;BME280;71194;38.900;-77.124;2023-10-19T00:18:24;100790.41;;;16.43;45.59
49657;BME280;71194;38.900;-77.124;2023-10-19T00:20:53;100788.97;;;16.25;45.77
49657;BME280;71194;38.900;-77.124;2023-10-19T00:23:23;100788.12;;;16.69;45.04
49657;BME280;71194;38.900;-77.124;2023-10-19T00:25:51;100788.21;;;16.59;44.45
49657;BME280;71194;38.900;-77.124;2023-10-19T00:28:19;100787.49;;;16.92;44.21
49657;BME280;71194;38.900;-77.124;2023-10-19T00:30:47;100785.61;;;16.70;44.34
49657;BME280;71194;38.900;-77.124;2023-10-19T00:33:15;100785.31;;;16.45;45.72
49657;BME280;71194;38.900;-77.124;2023-10-19T00:35:43;100789.21;;;16.67;45.56
49657;BME280;71194;38.900;-77.124;2023-10-19T00:38:10;100790.49;;;16.58;44.36
49657;BME280;71194;38.900;-77.124;2023-10-19T00:40:38;100789.06;;;16.84;44.04
49657;BME280;71194;38.900;-77.124;2023-10-19T00:43:06;100792.33;;;16.60;44.27
49657;BME280;71194;38.900;-77.124;2023-10-19T00:45:34;100788.58;;;16.85;44.62
49657;BME280;71194;38.900;-77.124;2023-10-19T00:48:02;100784.39;;;16.58;44.64
49657;BME280;71194;38.900;-77.124;2023-10-19T00:50:30;100782.11;;;16.71;44.58
49657;BME280;71194;38.900;-77.124;2023-10-19T00:52:58;100779.32;;;16.45;44.41
49657;BME280;71194;38.900;-77.124;2023-10-19T00:55:26;100778.87;;;16.46;44.36
49657;BME280;71194;38.900;-77.124;2023-10-19T00:57:55;100784.27;;;16.73;44.51
49657;BME280;71194;38.900;-77.124;2023-10-19T01:00:24;100782.18;;;16.51;44.36
49657;BME280;71194;38.900;-77.124;2023-10-19T01:02:52;100782.04;;;16.82;43.56
49657;BME280;71194;38.900;-77.124;2023-10-19T01:05:19;100781.70;;;16.60;43.28
49657;BME280;71194;38.900;-77.124;2023-10-19T01:07:48;100785.25;;;16.65;43.31
49657;BME280;71194;38.900;-77.124;2023-10-19T01:10:16;100786.89;;;16.32;43.76
49657;BME280;71194;38.900;-77.124;2023-10-19T01:12:43;100786.78;;;16.70;43.55
49657;BME280;71194;38.900;-77.124;2023-10-19T01:15:13;100786.56;;;16.57;43.25
49657;BME280;71194;38.900;-77.124;2023-10-19T01:17:44;100788.94;;;16.63;42.85
49657;BME280;71194;38.900;-77.124;2023-10-19T01:20:13;100791.81;;;16.72;43.95
49657;BME280;71194;38.900;-77.124;2023-10-19T01:22:48;100794.13;;;16.50;43.90
49657;BME280;71194;38.900;-77.124;2023-10-19T01:25:15;100795.34;;;16.66;43.79
49657;BME280;71194;38.900;-77.124;2023-10-19T01:27:43;100797.50;;;16.51;44.24
49657;BME280;71194;38.900;-77.124;2023-10-19T01:30:12;100801.34;;;16.38;44.50
49657;BME280;71194;38.900;-77.124;2023-10-19T01:32:40;100798.19;;;16.27;44.51
49657;BME280;71194;38.900;-77.124;2023-10-19T01:35:08;100796.69;;;16.26;44.11
49657;BME280;71194;38.900;-77.124;2023-10-19T01:37:36;100801.85;;;16.21;43.75
49657;BME280;71194;38.900;-77.124;2023-10-19T01:40:05;100796.53;;;16.03;44.19
49657;BME280;71194;38.900;-77.124;2023-10-19T01:42:34;100796.82;;;15.90;44.30
49657;BME280;71194;38.900;-77.124;2023-10-19T01:45:02;100799.04;;;15.79;44.20
49657;BME280;71194;38.900;-77.124;2023-10-19T01:47:30;100798.53;;;15.58;45.17
49657;BME280;71194;38.900;-77.124;2023-10-19T01:49:58;100807.39;;;15.37;45.46
49657;BME280;71194;38.900;-77.124;2023-10-19T01:52:26;100810.36;;;15.17;46.52
49657;BME280;71194;38.900;-77.124;2023-10-19T01:54:54;100806.92;;;15.14;46.27
49657;BME280;71194;38.900;-77.124;2023-10-19T01:57:22;100811.17;;;15.14;45.92
49657;BME280;71194;38.900;-77.124;2023-10-19T01:59:50;100812.28;;;14.86;46.98
49657;BME280;71194;38.900;-77.124;2023-10-19T02:02:18;100815.23;;;14.48;48.04
49657;BME280;71194;38.900;-77.124;2023-10-19T02:04:46;100821.36;;;14.51;48.79
49657;BME280;71194;38.900;-77.124;2023-10-19T02:07:13;100822.66;;;14.60;49.15
49657;BME280;71194;38.900;-77.124;2023-10-19T02:09:41;100823.66;;;14.54;49.29
49657;BME280;71194;38.900;-77.124;2023-10-19T02:12:09;100824.31;;;14.21;49.55
49657;BME280;71194;38.900;-77.124;2023-10-19T02:14:38;100822.27;;;14.27;49.78
49657;BME280;71194;38.900;-77.124;2023-10-19T02:17:06;100828.45;;;14.12;50.06
49657;BME280;71194;38.900;-77.124;2023-10-19T02:19:33;100835.76;;;14.22;50.47
49657;BME280;71194;38.900;-77.124;2023-10-19T02:22:02;100836.58;;;14.12;50.73
49657;BME280;71194;38.900;-77.124;2023-10-19T02:24:30;100835.77;;;13.86;51.03
49657;BME280;71194;38.900;-77.124;2023-10-19T02:26:58;100835.88;;;14.00;50.54
49657;BME280;71194;38.900;-77.124;2023-10-19T02:29:26;100836.20;;;14.06;50.90
49657;BME280;71194;38.900;-77.124;2023-10-19T02:31:54;100840.74;;;13.86;51.37
49657;BME280;71194;38.900;-77.124;2023-10-19T02:34:22;100844.33;;;14.09;51.95
49657;BME280;71194;38.900;-77.124;2023-10-19T02:36:50;100842.05;;;13.87;51.78
49657;BME280;71194;38.900;-77.124;2023-10-19T02:39:18;100840.93;;;14.04;50.82
49657;BME280;71194;38.900;-77.124;2023-10-19T02:41:47;100843.52;;;14.16;51.06
49657;BME280;71194;38.900;-77.124;2023-10-19T02:44:15;100845.52;;;13.60;51.34
49657;BME280;71194;38.900;-77.124;2023-10-19T02:46:44;100843.76;;;13.94;51.78
49657;BME280;71194;38.900;-77.124;2023-10-19T02:49:13;100842.08;;;13.53;52.42
49657;BME280;71194;38.900;-77.124;2023-10-19T02:51:43;100842.47;;;13.66;52.17
49657;BME280;71194;38.900;-77.124;2023-10-19T02:54:12;100841.64;;;13.73;51.98
49657;BME280;71194;38.900;-77.124;2023-10-19T02:56:40;100843.78;;;13.54;51.59
49657;BME280;71194;38.900;-77.124;2023-10-19T02:59:09;100843.89;;;13.68;51.57
49657;BME280;71194;38.900;-77.124;2023-10-19T03:01:36;100837.94;;;13.89;51.65
49657;BME280;71194;38.900;-77.124;2023-10-19T03:04:04;100835.55;;;13.54;51.76
49657;BME280;71194;38.900;-77.124;2023-10-19T03:06:32;100834.03;;;13.75;52.12
49657;BME280;71194;38.900;-77.124;2023-10-19T03:09:04;100835.78;;;13.58;52.88
49657;BME280;71194;38.900;-77.124;2023-10-19T03:11:31;100838.56;;;13.60;53.26
49657;BME280;71194;38.900;-77.124;2023-10-19T03:13:59;100838.08;;;13.39;52.93
49657;BME280;71194;38.900;-77.124;2023-10-19T03:16:27;100840.38;;;13.60;52.88
49657;BME280;71194;38.900;-77.124;2023-10-19T03:18:55;100844.52;;;13.44;53.71
49657;BME280;71194;38.900;-77.124;2023-10-19T03:21:23;100841.02;;;13.15;53.79
49657;BME280;71194;38.900;-77.124;2023-10-19T03:23:50;100843.23;;;13.44;53.42
49657;BME280;71194;38.900;-77.124;2023-10-19T03:26:18;100837.71;;;13.36;53.44
49657;BME280;71194;38.900;-77.124;2023-10-19T03:28:46;100837.29;;;13.34;53.44
49657;BME280;71194;38.900;-77.124;2023-10-19T03:31:14;100835.32;;;13.18;54.06
49657;BME280;71194;38.900;-77.124;2023-10-19T03:33:42;100829.63;;;13.22;54.91
49657;BME280;71194;38.900;-77.124;2023-10-19T03:36:09;100828.28;;;12.92;55.52
49657;BME280;71194;38.900;-77.124;2023-10-19T03:38:37;100827.61;;;12.88;55.89
49657;BME280;71194;38.900;-77.124;2023-10-19T03:41:05;100829.32;;;13.14;56.04
49657;BME280;71194;38.900;-77.124;2023-10-19T03:43:33;100830.35;;;12.94;56.29
49657;BME280;71194;38.900;-77.124;2023-10-19T03:46:03;100826.68;;;12.98;56.50
49657;BME280;71194;38.900;-77.124;2023-10-19T03:48:30;100827.26;;;13.00;56.66
49657;BME280;71194;38.900;-77.124;2023-10-19T03:50:58;100827.06;;;12.88;56.37
49657;BME280;71194;38.900;-77.124;2023-10-19T03:53:26;100831.98;;;13.44;56.29
49657;BME280;71194;38.900;-77.124;2023-10-19T03:55:54;100831.78;;;13.15;56.43
49657;BME280;71194;38.900;-77.124;2023-10-19T03:58:22;100831.16;;;13.04;56.84
49657;BME280;71194;38.900;-77.124;2023-10-19T04:00:49;100833.18;;;13.08;56.58
49657;BME280;71194;38.900;-77.124;2023-10-19T04:03:17;100836.07;;;12.93;56.87
49657;BME280;71194;38.900;-77.124;2023-10-19T04:05:45;100837.36;;;12.83;57.16
49657;BME280;71194;38.900;-77.124;2023-10-19T04:08:13;100835.78;;;12.97;56.96
49657;BME280;71194;38.900;-77.124;2023-10-19T04:10:41;100834.22;;;12.98;56.88
49657;BME280;71194;38.900;-77.124;2023-10-19T04:13:09;100837.31;;;13.06;57.11
49657;BME280;71194;38.900;-77.124;2023-10-19T04:15:36;100835.42;;;13.01;57.32
49657;BME280;71194;38.900;-77.124;2023-10-19T04:18:05;100830.95;;;12.77;57.48
49657;BME280;71194;38.900;-77.124;2023-10-19T04:20:33;100833.04;;;12.71;57.61
49657;BME280;71194;38.900;-77.124;2023-10-19T04:23:01;100827.48;;;13.16;57.84
49657;BME280;71194;38.900;-77.124;2023-10-19T04:25:29;100828.20;;;12.66;57.89
49657;BME280;71194;38.900;-77.124;2023-10-19T04:27:56;100827.53;;;12.61;58.02
49657;BME280;71194;38.900;-77.124;2023-10-19T04:30:24;100824.56;;;13.07;58.19
49657;BME280;71194;38.900;-77.124;2023-10-19T04:32:52;100823.61;;;13.09;58.15
49657;BME280;71194;38.900;-77.124;2023-10-19T04:35:21;100823.30;;;13.10;58.30
49657;BME280;71194;38.900;-77.124;2023-10-19T04:37:49;100821.21;;;13.08;58.36
49657;BME280;71194;38.900;-77.124;2023-10-19T04:40:16;100823.49;;;12.71;58.50
49657;BME280;71194;38.900;-77.124;2023-10-19T04:42:45;100829.29;;;12.65;58.65
49657;BME280;71194;38.900;-77.124;2023-10-19T04:45:13;100829.83;;;12.62;58.76
49657;BME280;71194;38.900;-77.124;2023-10-19T04:47:41;100833.67;;;12.83;59.01
49657;BME280;71194;38.900;-77.124;2023-10-19T04:50:10;100837.80;;;12.56;59.15
49657;BME280;71194;38.900;-77.124;2023-10-19T04:52:38;100839.48;;;12.68;59.09
49657;BME280;71194;38.900;-77.124;2023-10-19T04:55:06;100838.81;;;12.76;58.68
49657;BME280;71194;38.900;-77.124;2023-10-19T04:57:34;100836.93;;;12.76;58.69
49657;BME280;71194;38.900;-77.124;2023-10-19T05:00:03;100836.85;;;13.02;58.90
49657;BME280;71194;38.900;-77.124;2023-10-19T05:02:30;100836.69;;;13.05;59.11
49657;BME280;71194;38.900;-77.124;2023-10-19T05:04:58;100834.87;;;12.56;59.37
49657;BME280;71194;38.900;-77.124;2023-10-19T05:07:26;100834.90;;;13.05;59.66
49657;BME280;71194;38.900;-77.124;2023-10-19T05:09:54;100835.48;;;12.71;59.89
49657;BME280;71194;38.900;-77.124;2023-10-19T05:12:21;100835.39;;;12.48;60.16
49657;BME280;71194;38.900;-77.124;2023-10-19T05:14:49;100837.00;;;12.92;60.51
49657;BME280;71194;38.900;-77.124;2023-10-19T05:17:17;100833.65;;;12.99;60.74
49657;BME280;71194;38.900;-77.124;2023-10-19T05:19:45;100831.76;;;12.54;60.61
49657;BME280;71194;38.900;-77.124;2023-10-19T05:22:12;100832.87;;;12.69;60.90
49657;BME280;71194;38.900;-77.124;2023-10-19T05:24:40;100831.55;;;13.04;60.96
49657;BME280;71194;38.900;-77.124;2023-10-19T05:27:08;100826.64;;;12.83;60.65
49657;BME280;71194;38.900;-77.124;2023-10-19T05:29:36;100832.19;;;12.63;60.97
49657;BME280;71194;38.900;-77.124;2023-10-19T05:32:05;100838.44;;;12.77;61.28
49657;BME280;71194;38.900;-77.124;2023-10-19T05:34:33;100843.79;;;12.46;61.51
49657;BME280;71194;38.900;-77.124;2023-10-19T05:37:01;100846.12;;;12.80;61.63
49657;BME280;71194;38.900;-77.124;2023-10-19T05:39:29;100840.62;;;12.74;61.54
49657;BME280;71194;38.900;-77.124;2023-10-19T05:41:57;100840.03;;;12.77;61.51
49657;BME280;71194;38.900;-77.124;2023-10-19T05:44:25;100838.30;;;12.54;61.43
49657;BME280;71194;38.900;-77.124;2023-10-19T05:46:52;100840.30;;;12.84;61.31
49657;BME280;71194;38.900;-77.124;2023-10-19T05:49:20;100836.88;;;12.75;61.52
49657;BME280;71194;38.900;-77.124;2023-10-19T05:51:49;100838.70;;;12.75;61.48
49657;BME280;71194;38.900;-77.124;2023-10-19T05:54:17;100839.45;;;12.76;61.28
49657;BME280;71194;38.900;-77.124;2023-10-19T05:56:45;100838.76;;;12.67;61.42
49657;BME280;71194;38.900;-77.124;2023-10-19T05:59:12;100838.42;;;12.33;61.60
49657;BME280;71194;38.900;-77.124;2023-10-19T06:01:40;100837.08;;;12.64;61.61
49657;BME280;71194;38.900;-77.124;2023-10-19T06:04:08;100839.95;;;12.08;61.59
49657;BME280;71194;38.900;-77.124;2023-10-19T06:06:35;100837.42;;;12.56;61.61
49657;BME280;71194;38.900;-77.124;2023-10-19T06:09:04;100834.06;;;12.27;61.57
49657;BME280;71194;38.900;-77.124;2023-10-19T06:11:32;100836.16;;;12.47;61.49
49657;BME280;71194;38.900;-77.124;2023-10-19T06:14:00;100836.55;;;12.45;61.65
49657;BME280;71194;38.900;-77.124;2023-10-19T06:16:28;100833.58;;;12.39;61.77
49657;BME280;71194;38.900;-77.124;2023-10-19T06:18:56;100835.87;;;12.36;61.84
49657;BME280;71194;38.900;-77.124;2023-10-19T06:21:24;100836.30;;;12.32;61.81
49657;BME280;71194;38.900;-77.124;2023-10-19T06:23:52;100838.69;;;12.07;61.94
49657;BME280;71194;38.900;-77.124;2023-10-19T06:26:20;100839.46;;;12.40;61.97
49657;BME280;71194;38.900;-77.124;2023-10-19T06:28:48;100837.62;;;12.41;61.82
49657;BME280;71194;38.900;-77.124;2023-10-19T06:31:16;100840.78;;;12.34;62.04
49657;BME280;71194;38.900;-77.124;2023-10-19T06:33:44;100838.64;;;12.32;61.94
49657;BME280;71194;38.900;-77.124;2023-10-19T06:36:12;100839.48;;;12.09;62.10
49657;BME280;71194;38.900;-77.124;2023-10-19T06:38:39;100838.21;;;12.28;62.13
49657;BME280;71194;38.900;-77.124;2023-10-19T06:41:12;100832.73;;;12.43;62.03
49657;BME280;71194;38.900;-77.124;2023-10-19T06:43:40;100835.00;;;12.50;61.66
49657;BME280;71194;38.900;-77.124;2023-10-19T06:46:08;100833.29;;;12.55;61.43
49657;BME280;71194;38.900;-77.124;2023-10-19T06:48:36;100831.76;;;12.44;61.58
49657;BME280;71194;38.900;-77.124;2023-10-19T06:51:04;100833.54;;;12.44;61.74
49657;BME280;71194;38.900;-77.124;2023-10-19T06:53:32;100829.44;;;12.47;61.48
49657;BME280;71194;38.900;-77.124;2023-10-19T06:56:00;100831.46;;;12.18;61.60
49657;BME280;71194;38.900;-77.124;2023-10-19T06:58:28;100829.49;;;12.48;61.65
49657;BME280;71194;38.900;-77.124;2023-10-19T07:00:56;100827.01;;;12.61;61.33
49657;BME280;71194;38.900;-77.124;2023-10-19T07:03:24;100823.69;;;12.55;61.47
49657;BME280;71194;38.900;-77.124;2023-10-19T07:05:52;100820.33;;;12.46;61.77
49657;BME280;71194;38.900;-77.124;2023-10-19T07:08:20;100818.87;;;12.41;61.94
49657;BME280;71194;38.900;-77.124;2023-10-19T07:10:48;100815.98;;;12.32;62.30
49657;BME280;71194;38.900;-77.124;2023-10-19T07:13:16;100808.68;;;12.33;62.55
49657;BME280;71194;38.900;-77.124;2023-10-19T07:15:46;100804.18;;;12.34;62.60
49657;BME280;71194;38.900;-77.124;2023-10-19T07:18:13;100804.70;;;12.29;62.77
49657;BME280;71194;38.900;-77.124;2023-10-19T07:20:41;100802.57;;;12.40;62.90
49657;BME280;71194;38.900;-77.124;2023-10-19T07:23:10;100801.66;;;12.55;62.72
49657;BME280;71194;38.900;-77.124;2023-10-19T07:25:38;100795.63;;;12.66;62.73
49657;BME280;71194;38.900;-77.124;2023-10-19T07:28:06;100790.88;;;12.65;62.78
49657;BME280;71194;38.900;-77.124;2023-10-19T07:30:33;100796.83;;;12.62;63.07
49657;BME280;71194;38.900;-77.124;2023-10-19T07:33:01;100788.76;;;12.63;63.36
49657;BME280;71194;38.900;-77.124;2023-10-19T07:35:29;100788.31;;;12.70;63.20
49657;BME280;71194;38.900;-77.124;2023-10-19T07:37:57;100786.98;;;12.12;63.25
49657;BME280;71194;38.900;-77.124;2023-10-19T07:40:25;100786.74;;;12.51;63.61
49657;BME280;71194;38.900;-77.124;2023-10-19T07:42:53;100785.48;;;12.15;63.69
49657;BME280;71194;38.900;-77.124;2023-10-19T07:45:21;100781.91;;;12.48;64.02
49657;BME280;71194;38.900;-77.124;2023-10-19T07:47:49;100782.81;;;12.53;63.93
49657;BME280;71194;38.900;-77.124;2023-10-19T07:50:17;100778.88;;;12.50;64.11
49657;BME280;71194;38.900;-77.124;2023-10-19T07:52:46;100775.05;;;12.52;64.09
49657;BME280;71194;38.900;-77.124;2023-10-19T07:55:14;100772.81;;;12.55;63.96
49657;BME280;71194;38.900;-77.124;2023-10-19T07:57:42;100770.72;;;12.59;63.95
49657;BME280;71194;38.900;-77.124;2023-10-19T08:00:12;100766.35;;;12.52;64.30
49657;BME280;71194;38.900;-77.124;2023-10-19T08:02:40;100765.38;;;12.46;64.29
49657;BME280;71194;38.900;-77.124;2023-10-19T08:05:08;100761.63;;;12.20;64.35
49657;BME280;71194;38.900;-77.124;2023-10-19T08:07:36;100762.08;;;12.52;64.13
49657;BME280;71194;38.900;-77.124;2023-10-19T08:10:05;100761.24;;;12.50;63.88
49657;BME280;71194;38.900;-77.124;2023-10-19T08:12:33;100759.71;;;12.19;64.24
49657;BME280;71194;38.900;-77.124;2023-10-19T08:15:01;100759.55;;;12.36;64.27
49657;BME280;71194;38.900;-77.124;2023-10-19T08:17:29;100758.08;;;12.31;64.53
49657;BME280;71194;38.900;-77.124;2023-10-19T08:19:57;100754.02;;;12.33;64.44
49657;BME280;71194;38.900;-77.124;2023-10-19T08:22:24;100761.26;;;12.36;64.48
49657;BME280;71194;38.900;-77.124;2023-10-19T08:24:52;100761.58;;;12.38;64.35
49657;BME280;71194;38.900;-77.124;2023-10-19T08:27:20;100763.79;;;12.47;64.06
49657;BME280;71194;38.900;-77.124;2023-10-19T08:29:48;100761.00;;;12.46;64.07
49657;BME280;71194;38.900;-77.124;2023-10-19T08:32:16;100762.61;;;12.49;64.03
49657;BME280;71194;38.900;-77.124;2023-10-19T08:34:44;100761.11;;;12.49;63.87
49657;BME280;71194;38.900;-77.124;2023-10-19T08:37:12;100759.94;;;12.54;63.68
49657;BME280;71194;38.900;-77.124;2023-10-19T08:39:41;100755.23;;;12.47;63.74
49657;BME280;71194;38.900;-77.124;2023-10-19T08:42:09;100760.39;;;12.37;64.23
49657;BME280;71194;38.900;-77.124;2023-10-19T08:44:37;100760.57;;;12.26;64.42
49657;BME280;71194;38.900;-77.124;2023-10-19T08:47:05;100761.87;;;12.27;64.60
49657;BME280;71194;38.900;-77.124;2023-10-19T08:49:32;100756.04;;;12.33;64.55
49657;BME280;71194;38.900;-77.124;2023-10-19T08:52:01;100759.15;;;11.97;64.60
49657;BME280;71194;38.900;-77.124;2023-10-19T08:54:29;100760.39;;;12.23;64.72
49657;BME280;71194;38.900;-77.124;2023-10-19T08:56:57;100762.85;;;12.14;65.00
49657;BME280;71194;38.900;-77.124;2023-10-19T08:59:25;100764.60;;;12.22;64.85
49657;BME280;71194;38.900;-77.124;2023-10-19T09:02:00;100769.04;;;12.04;64.71
49657;BME280;71194;38.900;-77.124;2023-10-19T09:04:28;100772.03;;;12.38;64.27
49657;BME280;71194;38.900;-77.124;2023-10-19T09:06:56;100768.61;;;12.39;64.21
49657;BME280;71194;38.900;-77.124;2023-10-19T09:09:24;100765.29;;;12.43;63.74
49657;BME280;71194;38.900;-77.124;2023-10-19T09:11:55;100768.14;;;12.43;63.50
49657;BME280;71194;38.900;-77.124;2023-10-19T09:14:33;100768.99;;;12.35;63.70
49657;BME280;71194;38.900;-77.124;2023-10-19T09:17:01;100771.19;;;12.33;63.66
49657;BME280;71194;38.900;-77.124;2023-10-19T09:19:37;100768.88;;;12.20;63.95
49657;BME280;71194;38.900;-77.124;2023-10-19T09:22:05;100769.97;;;12.35;63.83
49657;BME280;71194;38.900;-77.124;2023-10-19T09:24:34;100770.01;;;12.16;64.19
49657;BME280;71194;38.900;-77.124;2023-10-19T09:27:03;100767.12;;;12.23;63.97
49657;BME280;71194;38.900;-77.124;2023-10-19T09:29:31;100769.91;;;12.19;63.93
49657;BME280;71194;38.900;-77.124;2023-10-19T09:31:59;100768.91;;;12.17;63.91
49657;BME280;71194;38.900;-77.124;2023-10-19T09:34:27;100774.87;;;12.14;63.86
49657;BME280;71194;38.900;-77.124;2023-10-19T09:36:56;100774.64;;;12.06;64.12
49657;BME280;71194;38.900;-77.124;2023-10-19T09:39:23;100778.38;;;11.93;64.53
49657;BME280;71194;38.900;-77.124;2023-10-19T09:41:52;100777.27;;;12.12;64.74
49657;BME280;71194;38.900;-77.124;2023-10-19T09:44:24;100776.07;;;11.99;64.50
49657;BME280;71194;38.900;-77.124;2023-10-19T09:46:55;100775.84;;;12.53;63.85
49657;BME280;71194;38.900;-77.124;2023-10-19T09:49:25;100773.93;;;12.09;63.81
49657;BME280;71194;38.900;-77.124;2023-10-19T09:51:54;100773.00;;;12.12;63.59
49657;BME280;71194;38.900;-77.124;2023-10-19T09:54:27;100772.00;;;12.09;63.77
49657;BME280;71194;38.900;-77.124;2023-10-19T09:57:04;100772.44;;;11.84;63.72
49657;BME280;71194;38.900;-77.124;2023-10-19T09:59:41;100772.54;;;12.15;63.76
49657;BME280;71194;38.900;-77.124;2023-10-19T10:02:12;100770.82;;;11.97;64.11
49657;BME280;71194;38.900;-77.124;2023-10-19T10:04:40;100773.52;;;12.08;64.30
49657;BME280;71194;38.900;-77.124;2023-10-19T10:07:09;100774.18;;;12.08;64.49
49657;BME280;71194;38.900;-77.124;2023-10-19T10:09:39;100775.71;;;11.95;64.44
49657;BME280;71194;38.900;-77.124;2023-10-19T10:12:25;100776.45;;;12.05;64.27
49657;BME280;71194;38.900;-77.124;2023-10-19T10:14:57;100774.60;;;12.36;64.39
49657;BME280;71194;38.900;-77.124;2023-10-19T10:17:26;100772.15;;;11.99;64.41
49657;BME280;71194;38.900;-77.124;2023-10-19T10:19:56;100771.01;;;12.00;64.13
49657;BME280;71194;38.900;-77.124;2023-10-19T10:22:24;100769.54;;;12.02;64.13
49657;BME280;71194;38.900;-77.124;2023-10-19T10:24:55;100764.70;;;12.08;63.84
49657;BME280;71194;38.900;-77.124;2023-10-19T10:27:23;100762.31;;;12.03;64.03
49657;BME280;71194;38.900;-77.124;2023-10-19T10:29:56;100764.64;;;12.15;64.14
49657;BME280;71194;38.900;-77.124;2023-10-19T10:32:56;100764.55;;;12.14;64.51
49657;BME280;71194;38.900;-77.124;2023-10-19T10:36:14;100760.72;;;12.06;64.55
49657;BME280;71194;38.900;-77.124;2023-10-19T10:38:42;100755.75;;;12.19;64.18
49657;BME280;71194;38.900;-77.124;2023-10-19T10:41:09;100755.15;;;12.19;64.45
49657;BME280;71194;38.900;-77.124;2023-10-19T10:43:54;100753.08;;;12.46;64.68
49657;BME280;71194;38.900;-77.124;2023-10-19T10:46:24;100756.55;;;12.42;64.90
49657;BME280;71194;38.900;-77.124;2023-10-19T10:48:52;100755.33;;;12.17;64.88
49657;BME280;71194;38.900;-77.124;2023-10-19T10:51:22;100749.80;;;12.21;65.03
49657;BME280;71194;38.900;-77.124;2023-10-19T10:53:51;100744.80;;;12.54;64.73
49657;BME280;71194;38.900;-77.124;2023-10-19T10:56:20;100740.06;;;12.31;64.65
49657;BME280;71194;38.900;-77.124;2023-10-19T10:58:48;100738.57;;;12.32;64.34
49657;BME280;71194;38.900;-77.124;2023-10-19T11:01:29;100734.67;;;12.29;64.29
49657;BME280;71194;38.900;-77.124;2023-10-19T11:04:09;100729.06;;;12.26;64.37
49657;BME280;71194;38.900;-77.124;2023-10-19T11:06:55;100728.54;;;12.25;64.46
49657;BME280;71194;38.900;-77.124;2023-10-19T11:09:23;100727.91;;;12.22;64.62
49657;BME280;71194;38.900;-77.124;2023-10-19T11:11:51;100723.06;;;12.64;65.03
49657;BME280;71194;38.900;-77.124;2023-10-19T11:14:18;100724.32;;;12.25;64.89
49657;BME280;71194;38.900;-77.124;2023-10-19T11:16:46;100723.18;;;12.28;64.90
49657;BME280;71194;38.900;-77.124;2023-10-19T11:19:14;100723.00;;;12.25;65.05
49657;BME280;71194;38.900;-77.124;2023-10-19T11:21:53;100722.96;;;12.24;65.40
49657;BME280;71194;38.900;-77.124;2023-10-19T11:24:25;100719.14;;;12.32;65.29
49657;BME280;71194;38.900;-77.124;2023-10-19T11:26:53;100720.45;;;12.59;65.17
49657;BME280;71194;38.900;-77.124;2023-10-19T11:29:21;100719.77;;;12.37;65.24
49657;BME280;71194;38.900;-77.124;2023-10-19T11:31:57;100724.13;;;12.46;65.02
49657;BME280;71194;38.900;-77.124;2023-10-19T11:34:25;100726.39;;;12.51;65.08
49657;BME280;71194;38.900;-77.124;2023-10-19T11:36:53;100724.38;;;12.57;65.11
49657;BME280;71194;38.900;-77.124;2023-10-19T11:39:21;100724.78;;;12.85;65.25
49657;BME280;71194;38.900;-77.124;2023-10-19T11:41:49;100726.06;;;12.73;65.06
49657;BME280;71194;38.900;-77.124;2023-10-19T11:44:16;100729.21;;;12.75;65.08
49657;BME280;71194;38.900;-77.124;2023-10-19T11:46:44;100729.75;;;12.77;65.31
49657;BME280;71194;38.900;-77.124;2023-10-19T11:49:11;100732.30;;;12.84;65.25
49657;BME280;71194;38.900;-77.124;2023-10-19T11:51:39;100731.62;;;12.85;65.35
49657;BME280;71194;38.900;-77.124;2023-10-19T11:54:07;100733.42;;;12.94;65.41
49657;BME280;71194;38.900;-77.124;2023-10-19T11:56:35;100733.56;;;12.98;65.59
49657;BME280;71194;38.900;-77.124;2023-10-19T11:59:03;100736.64;;;12.65;65.11
49657;BME280;71194;38.900;-77.124;2023-10-19T12:01:31;100733.28;;;12.97;65.02
49657;BME280;71194;38.900;-77.124;2023-10-19T12:03:59;100733.89;;;12.80;65.01
49657;BME280;71194;38.900;-77.124;2023-10-19T12:06:27;100735.28;;;12.93;65.00
49657;BME280;71194;38.900;-77.124;2023-10-19T12:08:55;100734.19;;;13.10;64.60
49657;BME280;71194;38.900;-77.124;2023-10-19T12:11:23;100734.33;;;13.21;64.45
49657;BME280;71194;38.900;-77.124;2023-10-19T12:13:51;100730.65;;;13.27;64.46
49657;BME280;71194;38.900;-77.124;2023-10-19T12:16:18;100735.67;;;13.57;64.59
49657;BME280;71194;38.900;-77.124;2023-10-19T12:18:47;100739.47;;;13.50;64.15
49657;BME280;71194;38.900;-77.124;2023-10-19T12:21:15;100740.01;;;13.48;64.28
49657;BME280;71194;38.900;-77.124;2023-10-19T12:23:44;100736.41;;;13.60;64.15
49657;BME280;71194;38.900;-77.124;2023-10-19T12:26:11;100734.85;;;13.63;63.80
49657;BME280;71194;38.900;-77.124;2023-10-19T12:28:40;100734.62;;;13.65;63.93
49657;BME280;71194;38.900;-77.124;2023-10-19T12:31:08;100729.58;;;13.78;63.69
49657;BME280;71194;38.900;-77.124;2023-10-19T12:33:36;100732.25;;;13.57;63.49
49657;BME280;71194;38.900;-77.124;2023-10-19T12:36:04;100727.81;;;13.91;63.46
49657;BME280;71194;38.900;-77.124;2023-10-19T12:38:32;100725.87;;;13.91;63.23